Bremen — C6JC3 — position and weather

sailwx.info

Track history (hours):
 
Tides and Currents Weather Stations Pressure Air Temp Water Temp Dewpoint Dewpoint Depression Visibility Wind Speed Wind Dir Waves Ship Positions

Bremen

Operator: Hapag-Lloyd Container Line

Last reported at 2019-Jun-08 03:38 UTC. Time now 2019-Jun-16 14:36 UTC.
Position N 58°01' W 005°50'.
Warning: this ship's position is 8 days out of date.

Length 111.5 m; beam 17 m; draft 4.8 m.

Type: Ship. MMSI: 308429000.

Date/timePositionNaut miles runAvg speedWind from/ knotsBaromVisibWave heightAir tempDewpointWater temp
2019-Jun-08 03:38N 58°01' W 005°50'1 5.4
2019-Jun-08 03:28N 58°02' W 005°51'34 1.3
2019-Jun-07 01:23N 58°32' W 005°21'25 8.7
2019-Jun-06 22:32N 58°45' W 004°41'0 9.2
2019-Jun-06 22:30N 58°46' W 004°40'4 8.7
2019-Jun-06 22:00N 58°48' W 004°33'4 8.5
2019-Jun-06 21:30N 58°50' W 004°26'4 8.1
2019-Jun-06 21:00N 58°52' W 004°19'4 8.1
2019-Jun-06 20:30N 58°54' W 004°13'4 7.9
2019-Jun-06 20:00N 58°56' W 004°06'4 8.1
2019-Jun-06 19:30N 58°58' W 003°59'4 8.3
2019-Jun-06 19:00N 58°60' W 003°52'4 8.4
2019-Jun-06 18:30N 59°02' W 003°45'4 8.6
2019-Jun-06 18:00N 59°04' W 003°38'4 8.0
2019-Jun-06 17:30N 59°06' W 003°31'4 8.0
2019-Jun-06 17:00N 59°08' W 003°25'2 3.9
2019-Jun-06 16:30N 59°09' W 003°21'0 0.6
2019-Jun-06 16:00N 59°09' W 003°21'6 9.8
2019-Jun-06 15:27N 59°13' W 003°16'1 0.1
2019-Jun-06 03:05N 59°13' W 003°18'1 6.9
2019-Jun-06 02:58N 59°12' W 003°19'2 5.4
2019-Jun-06 02:30N 59°10' W 003°22'2 4.7
2019-Jun-06 02:00N 59°09' W 003°25'3 5.1
2019-Jun-06 01:30N 59°07' W 003°28'3 5.8
2019-Jun-06 01:00N 59°04' W 003°31'3 6.3
2019-Jun-06 00:30N 59°02' W 003°35'3 6.5
2019-Jun-06 00:00N 58°59' W 003°39'3 5.3
2019-Jun-05 23:30N 58°57' W 003°38'3 6.6
2019-Jun-05 23:00N 58°57' W 003°32'4 7.2
2019-Jun-05 22:30N 58°57' W 003°25'4 8.0
2019-Jun-05 22:00N 58°57' W 003°17'1 1.1
2019-Jun-05 21:25N 58°58' W 003°18'0 0.0
2019-Jun-05 20:58N 58°58' W 003°18'0 0.0
2019-Jun-05 20:28N 58°58' W 003°18'0 0.0
2019-Jun-05 19:58N 58°58' W 003°18'0 0.0
2019-Jun-05 19:28N 58°58' W 003°18'0 0.0
2019-Jun-05 18:58N 58°58' W 003°18'0 0.0
2019-Jun-05 18:28N 58°58' W 003°18'0 0.0
2019-Jun-05 17:58N 58°58' W 003°18'0 0.0
2019-Jun-05 17:28N 58°58' W 003°18'0 0.0
2019-Jun-05 16:58N 58°58' W 003°18'0 0.0
2019-Jun-05 16:28N 58°58' W 003°18'0 0.0
2019-Jun-05 15:58N 58°58' W 003°18'0 0.0
2019-Jun-05 15:28N 58°58' W 003°18'0 0.0
2019-Jun-05 14:58N 58°58' W 003°18'0 0.0
2019-Jun-05 14:28N 58°58' W 003°18'0 0.0
2019-Jun-05 13:58N 58°58' W 003°18'0 0.0
2019-Jun-05 13:28N 58°58' W 003°18'0 0.0
2019-Jun-05 13:00N 58°58' W 003°18'0 0.0
2019-Jun-05 12:30N 58°58' W 003°18'0 0.0
2019-Jun-05 11:59N 58°58' W 003°18'0 0.0
2019-Jun-05 11:31N 58°58' W 003°18'0 0.0
2019-Jun-05 11:01N 58°58' W 003°18'0 0.4
2019-Jun-05 10:30N 58°58' W 003°18'2 3.9
2019-Jun-05 10:00N 58°57' W 003°21'4 8.1
2019-Jun-05 09:30N 58°54' W 003°27'3 5.0
2019-Jun-05 09:00N 58°51' W 003°28'3 6.8
2019-Jun-05 08:30N 58°48' W 003°25'3 5.3
2019-Jun-05 08:00N 58°46' W 003°23'3 5.2
2019-Jun-05 07:30N 58°44' W 003°20'5 9.3
2019-Jun-05 07:00N 58°44' W 003°11'612.2
2019-Jun-05 06:30N 58°41' W 003°01'714.2
2019-Jun-05 06:01N 58°36' W 002°52'612.2
2019-Jun-05 05:30N 58°30' W 002°46'5513.7
2019-Jun-05 01:27N 57°44' W 001°50'613.2
2019-Jun-05 01:00N 57°39' W 001°44'612.7
2019-Jun-05 00:30N 57°32' W 001°43'713.2
2019-Jun-05 00:00N 57°26' W 001°44'713.8
2019-Jun-04 23:30N 57°20' W 001°50'714.9
2019-Jun-04 23:01N 57°13' W 001°57'612.0
2019-Jun-04 22:30N 57°09' W 002°04'1 1.5
2019-Jun-04 22:00N 57°09' W 002°05'0 0.1
2019-Jun-04 21:30N 57°09' W 002°05'0 0.0
2019-Jun-04 20:59N 57°09' W 002°05'0 0.0
2019-Jun-04 20:28N 57°09' W 002°05'0 0.0
2019-Jun-04 19:58N 57°09' W 002°05'0 0.0
2019-Jun-04 19:28N 57°09' W 002°05'0 0.0
2019-Jun-04 18:58N 57°09' W 002°05'0 0.0
2019-Jun-04 18:28N 57°09' W 002°05'0 0.0
2019-Jun-04 17:58N 57°09' W 002°05'0 0.0
2019-Jun-04 17:28N 57°09' W 002°05'0 0.0
2019-Jun-04 16:58N 57°09' W 002°05'0 0.0
2019-Jun-04 16:28N 57°09' W 002°05'0 0.0
2019-Jun-04 15:58N 57°09' W 002°05'0 0.0
2019-Jun-04 15:28N 57°09' W 002°05'0 0.0
2019-Jun-04 14:55N 57°09' W 002°05'0 0.0
2019-Jun-04 14:28N 57°09' W 002°05'0 0.0
2019-Jun-04 13:58N 57°09' W 002°05'0 0.0
2019-Jun-04 13:28N 57°09' W 002°05'0 0.0
2019-Jun-04 12:58N 57°09' W 002°05'0 0.0
2019-Jun-04 12:28N 57°09' W 002°05'0 0.0
2019-Jun-04 11:58N 57°09' W 002°05'0 0.0
2019-Jun-04 11:28N 57°09' W 002°05'0 0.0
2019-Jun-04 10:58N 57°09' W 002°05'0 0.0
2019-Jun-04 10:28N 57°09' W 002°05'0 0.0
2019-Jun-04 09:58N 57°09' W 002°05'0 0.0
2019-Jun-04 09:28N 57°09' W 002°05'0 0.0
2019-Jun-04 08:59N 57°09' W 002°05'0 1.0
2019-Jun-04 08:30N 57°09' W 002°05'2 4.5
2019-Jun-04 08:01N 57°09' W 002°01'4 7.3
2019-Jun-04 07:30N 57°08' W 001°55'510.1
2019-Jun-04 07:00N 57°06' W 001°46'36414.4
2019-Jun-03 05:44N 54°10' E 007°40'413.9
2019-Jun-03 05:25N 54°08' E 007°46'1014.5
2019-Jun-03 04:43N 54°03' E 008°01'515.1
2019-Jun-03 04:25N 54°01' E 008°08'512.4
2019-Jun-03 04:00N 54°00' E 008°16'816.7
2019-Jun-03 03:29N 53°58' E 008°31'816.1
2019-Jun-03 03:00N 53°54' E 008°42'713.2
2019-Jun-03 02:30N 53°50' E 008°51'714.4
2019-Jun-03 02:01N 53°52' E 009°03'611.1
2019-Jun-03 01:30N 53°53' E 009°12'510.5
2019-Jun-03 01:00N 53°51' E 009°20'611.9
2019-Jun-03 00:30N 53°45' E 009°24'611.5
2019-Jun-03 00:01N 53°41' E 009°30'611.0
2019-Jun-02 23:31N 53°36' E 009°35'510.0
2019-Jun-02 23:00N 53°34' E 009°43'4 8.6
2019-Jun-02 22:30N 53°33' E 009°50'4 8.3
2019-Jun-02 22:01N 53°33' E 009°57'2 3.4
2019-Jun-02 21:30N 53°32' E 009°60'0 0.0
2019-Jun-02 21:00N 53°32' E 009°60'0 0.0
2019-Jun-02 20:29N 53°32' E 009°60'0 0.0
2019-Jun-02 19:59N 53°32' E 009°60'0 0.0
2019-Jun-02 19:29N 53°32' E 009°60'0 0.0
2019-Jun-02 18:59N 53°32' E 009°60'0 0.0
2019-Jun-02 18:29N 53°32' E 009°60'0 0.0
2019-Jun-02 17:59N 53°32' E 009°60'0 0.0
2019-Jun-02 17:29N 53°32' E 009°60'0 0.0
2019-Jun-02 16:59N 53°32' E 009°60'0 0.0
2019-Jun-02 16:29N 53°32' E 009°60'0 0.0
2019-Jun-02 15:59N 53°32' E 009°60'0 0.0
2019-Jun-02 15:29N 53°32' E 009°60'0 0.0
2019-Jun-02 14:59N 53°32' E 009°60'0 0.0
2019-Jun-02 14:29N 53°32' E 009°60'0 0.0
2019-Jun-02 13:59N 53°32' E 009°60'0 0.0
2019-Jun-02 13:29N 53°32' E 009°60'0 0.0
2019-Jun-02 12:59N 53°32' E 009°60'0 0.0
2019-Jun-02 12:29N 53°32' E 009°60'0 0.0
2019-Jun-02 11:56N 53°32' E 009°60'0 0.0
2019-Jun-02 11:29N 53°32' E 009°60'0 0.0
2019-Jun-02 10:59N 53°32' E 009°60'0 0.0
2019-Jun-02 10:29N 53°32' E 009°60'0 0.0
2019-Jun-02 09:59N 53°32' E 009°60'0 0.0
2019-Jun-02 09:29N 53°32' E 009°60'0 0.0
2019-Jun-02 08:59N 53°32' E 009°60'0 0.0
2019-Jun-02 08:29N 53°32' E 009°60'0 0.0
2019-Jun-02 07:59N 53°32' E 009°60'0 0.0
2019-Jun-02 07:28N 53°32' E 009°60'0 0.0
2019-Jun-02 06:58N 53°32' E 009°60'0 0.0
2019-Jun-02 06:28N 53°32' E 009°60'0 0.0
2019-Jun-02 06:00N 53°32' E 009°60'0 0.0
2019-Jun-02 05:30N 53°32' E 009°60'0 0.0
2019-Jun-02 05:01N 53°32' E 009°60'0 0.6
2019-Jun-02 04:30N 53°32' E 009°59'3 5.9
2019-Jun-02 04:00N 53°33' E 009°54'3 5.6
2019-Jun-02 03:30N 53°33' E 009°50'3 6.5
2019-Jun-02 03:00N 53°34' E 009°44'4 7.7
2019-Jun-02 02:30N 53°35' E 009°38'4 8.0
2019-Jun-02 02:01N 53°37' E 009°33'0 0.4
2019-Jun-02 01:29N 53°37' E 009°33'0 0.0
2019-Jun-02 00:59N 53°37' E 009°33'0 0.0
2019-Jun-02 00:29N 53°37' E 009°33'0 0.0
2019-Jun-01 23:59N 53°37' E 009°33'0 0.0
2019-Jun-01 23:29N 53°37' E 009°33'0 0.0
2019-Jun-01 22:59N 53°37' E 009°33'0 0.0
2019-Jun-01 22:29N 53°37' E 009°33'0 0.0
2019-Jun-01 21:58N 53°37' E 009°33'0 0.0
2019-Jun-01 21:28N 53°37' E 009°33'0 0.0
2019-Jun-01 21:00N 53°37' E 009°33'2 4.4
2019-Jun-01 20:30N 53°39' E 009°31'4 7.1
2019-Jun-01 20:00N 53°43' E 009°29'3 6.6
2019-Jun-01 19:30N 53°45' E 009°25'2 3.2
2019-Jun-01 18:58N 53°46' E 009°23'0 0.0
2019-Jun-01 18:28N 53°46' E 009°23'0 0.0
2019-Jun-01 17:58N 53°46' E 009°23'2 3.3
2019-Jun-01 17:30N 53°45' E 009°25'5 9.6
2019-Jun-01 17:00N 53°41' E 009°30'510.4
2019-Jun-01 16:30N 53°37' E 009°34'510.1
2019-Jun-01 16:00N 53°34' E 009°41'510.7
2019-Jun-01 15:30N 53°33' E 009°50'4 8.4
2019-Jun-01 15:00N 53°33' E 009°57'1 2.7
2019-Jun-01 14:30N 53°32' E 009°59'1 2.6
2019-Jun-01 14:00N 53°32' E 009°57'0 0.0
2019-Jun-01 13:30N 53°32' E 009°57'0 0.0
2019-Jun-01 13:00N 53°32' E 009°57'0 0.0
2019-Jun-01 12:29N 53°32' E 009°57'0 0.0
2019-Jun-01 11:59N 53°32' E 009°57'0 0.0
2019-Jun-01 11:29N 53°32' E 009°57'0 0.0
2019-Jun-01 10:59N 53°32' E 009°57'0 0.0
2019-Jun-01 10:29N 53°32' E 009°57'0 0.0
2019-Jun-01 09:59N 53°32' E 009°57'0 0.0
2019-Jun-01 09:29N 53°32' E 009°57'0 0.0
2019-Jun-01 08:59N 53°32' E 009°57'0 0.0
2019-Jun-01 08:29N 53°32' E 009°57'0 0.0
2019-Jun-01 07:59N 53°32' E 009°57'0 0.0
2019-Jun-01 07:29N 53°32' E 009°57'0 0.0
2019-Jun-01 06:59N 53°32' E 009°57'0 0.0
2019-Jun-01 06:29N 53°32' E 009°57'0 0.0
2019-Jun-01 05:59N 53°32' E 009°57'0 0.0
2019-Jun-01 05:29N 53°32' E 009°57'0 0.0
2019-Jun-01 04:59N 53°32' E 009°57'0 0.0
2019-Jun-01 04:29N 53°32' E 009°57'0 0.0
2019-Jun-01 03:59N 53°32' E 009°57'0 0.0
2019-Jun-01 03:30N 53°32' E 009°57'0 0.0
2019-Jun-01 02:58N 53°32' E 009°57'0 0.0
2019-Jun-01 02:29N 53°32' E 009°57'0 0.0
2019-Jun-01 02:00N 53°32' E 009°57'0 0.0
2019-Jun-01 01:30N 53°32' E 009°57'0 0.0
2019-Jun-01 01:00N 53°32' E 009°57'0 0.0
2019-Jun-01 00:30N 53°32' E 009°57'0 0.0
2019-Jun-01 00:00N 53°32' E 009°57'0 0.0
2019-May-31 23:30N 53°32' E 009°57'0 0.0
2019-May-31 23:00N 53°32' E 009°57'0 0.0
2019-May-31 22:30N 53°32' E 009°57'0 0.0
2019-May-31 22:00N 53°32' E 009°57'0 0.0
2019-May-31 21:30N 53°32' E 009°57'0 0.0
2019-May-31 21:00N 53°32' E 009°57'0 0.0
2019-May-31 20:30N 53°32' E 009°57'0 0.0
2019-May-31 20:00N 53°32' E 009°57'0 0.0
2019-May-31 19:30N 53°32' E 009°57'0 0.0
2019-May-31 19:00N 53°32' E 009°57'0 0.0
2019-May-31 18:27N 53°32' E 009°57'0 0.0
2019-May-31 18:00N 53°32' E 009°57'0 0.0
2019-May-31 17:30N 53°32' E 009°57'0 0.0
2019-May-31 17:00N 53°32' E 009°57'0 0.0
2019-May-31 16:30N 53°32' E 009°57'0 0.0
2019-May-31 16:00N 53°32' E 009°57'0 0.0
2019-May-31 15:30N 53°32' E 009°57'0 0.0
2019-May-31 15:00N 53°32' E 009°57'0 0.0
2019-May-31 14:30N 53°32' E 009°57'0 0.0
2019-May-31 14:00N 53°32' E 009°57'0 0.0
2019-May-31 13:30N 53°32' E 009°57'0 0.0
2019-May-31 13:00N 53°32' E 009°57'0 0.0
2019-May-31 12:30N 53°32' E 009°57'0 0.0
2019-May-31 12:00N 53°32' E 009°57'0 0.0
2019-May-31 11:30N 53°32' E 009°57'0 0.0
2019-May-31 11:00N 53°32' E 009°57'0 0.0
2019-May-31 10:30N 53°32' E 009°57'0 0.0
2019-May-31 10:00N 53°32' E 009°57'0 0.0
2019-May-31 09:30N 53°32' E 009°57'0 0.0
2019-May-31 09:00N 53°32' E 009°57'0 0.0
2019-May-31 08:30N 53°32' E 009°57'0 0.0
2019-May-31 08:00N 53°32' E 009°57'0 0.0
2019-May-31 07:30N 53°32' E 009°57'0 0.0
2019-May-31 07:00N 53°32' E 009°57'0 0.0
2019-May-31 06:30N 53°32' E 009°57'0 0.0
2019-May-31 06:00N 53°32' E 009°57'0 0.0
2019-May-31 05:30N 53°32' E 009°57'0 0.0
2019-May-31 05:00N 53°32' E 009°57'0 0.0
2019-May-31 04:30N 53°32' E 009°57'0 0.0
2019-May-31 04:00N 53°32' E 009°57'0 0.0
2019-May-31 03:30N 53°32' E 009°57'0 0.0
2019-May-31 03:00N 53°32' E 009°57'0 0.0
2019-May-31 02:30N 53°32' E 009°57'0 0.0
2019-May-31 02:00N 53°32' E 009°57'0 0.0
2019-May-31 01:30N 53°32' E 009°57'0 0.0
2019-May-31 01:00N 53°32' E 009°57'0 0.0
2019-May-31 00:30N 53°32' E 009°57'0 0.0
2019-May-31 00:00N 53°32' E 009°57'0 0.0
2019-May-30 23:30N 53°32' E 009°57'0 0.0
2019-May-30 23:00N 53°32' E 009°57'0 0.0
2019-May-30 22:30N 53°32' E 009°57'0 0.0
2019-May-30 22:00N 53°32' E 009°57'0 0.0
2019-May-30 21:30N 53°32' E 009°57'0 0.0
2019-May-30 21:00N 53°32' E 009°57'0 0.0
2019-May-30 20:30N 53°32' E 009°57'0 0.0
2019-May-30 20:00N 53°32' E 009°57'0 0.0
2019-May-30 19:30N 53°32' E 009°57'0 0.0
2019-May-30 19:00N 53°32' E 009°57'0 0.0
2019-May-30 18:30N 53°32' E 009°57'0 0.0
2019-May-30 18:00N 53°32' E 009°57'0 0.0
2019-May-30 17:30N 53°32' E 009°57'0 0.0
2019-May-30 17:00N 53°32' E 009°57'0 0.0
2019-May-30 16:30N 53°32' E 009°57'0 0.0
2019-May-30 16:00N 53°32' E 009°57'0 0.0
2019-May-30 15:30N 53°32' E 009°57'0 0.0
2019-May-30 15:00N 53°32' E 009°57'0 0.0
2019-May-30 14:30N 53°32' E 009°57'0 0.0
2019-May-30 14:00N 53°32' E 009°57'0 0.0
2019-May-30 13:30N 53°32' E 009°57'0 0.0
2019-May-30 13:00N 53°32' E 009°57'0 0.0
2019-May-30 12:30N 53°32' E 009°57'0 0.0
2019-May-30 12:00N 53°32' E 009°57'0 0.0
2019-May-30 11:30N 53°32' E 009°57'0 0.0
2019-May-30 11:00N 53°32' E 009°57'0 0.0
2019-May-30 10:30N 53°32' E 009°57'0 0.0
2019-May-30 10:00N 53°32' E 009°57'0 0.0
2019-May-30 09:30N 53°32' E 009°57'0 0.0
2019-May-30 09:00N 53°32' E 009°57'0 0.0
2019-May-30 08:30N 53°32' E 009°57'0 0.0
2019-May-30 08:00N 53°32' E 009°57'0 0.0
2019-May-30 07:30N 53°32' E 009°57'0 0.0
2019-May-30 07:00N 53°32' E 009°57'0 0.0
2019-May-30 06:30N 53°32' E 009°57'0 0.0
2019-May-30 06:00N 53°32' E 009°57'0 0.0
2019-May-30 05:30N 53°32' E 009°57'0 0.0
2019-May-30 05:00N 53°32' E 009°57'0 0.0
2019-May-30 04:30N 53°32' E 009°57'0 0.0
2019-May-30 04:00N 53°32' E 009°57'0 0.0
2019-May-30 03:27N 53°32' E 009°57'0 0.0
2019-May-30 03:00N 53°32' E 009°57'0 0.0
2019-May-30 02:30N 53°32' E 009°57'0 0.0
2019-May-30 02:00N 53°32' E 009°57'0 0.0
2019-May-30 01:30N 53°32' E 009°57'0 0.0
2019-May-30 01:00N 53°32' E 009°57'0 0.0
2019-May-30 00:30N 53°32' E 009°57'0 0.0
2019-May-30 00:00N 53°32' E 009°57'0 0.0
2019-May-29 23:30N 53°32' E 009°57'0 0.0
2019-May-29 23:00N 53°32' E 009°57'0 0.0
2019-May-29 22:30N 53°32' E 009°57'0 0.0
2019-May-29 22:00N 53°32' E 009°57'0 0.0
2019-May-29 21:30N 53°32' E 009°57'0 0.0
2019-May-29 21:00N 53°32' E 009°57'0 0.0
2019-May-29 20:30N 53°32' E 009°57'0 0.0
2019-May-29 19:57N 53°32' E 009°57'0 0.0
2019-May-29 19:30N 53°32' E 009°57'0 0.0
2019-May-29 19:00N 53°32' E 009°57'0 0.0
2019-May-29 18:30N 53°32' E 009°57'0 0.0
2019-May-29 18:00N 53°32' E 009°57'0 0.0
2019-May-29 17:30N 53°32' E 009°57'0 0.0
2019-May-29 17:00N 53°32' E 009°57'0 0.0
2019-May-29 16:30N 53°32' E 009°57'0 0.0
2019-May-29 16:00N 53°32' E 009°57'0 0.0
2019-May-29 15:30N 53°32' E 009°57'0 0.0
2019-May-29 15:00N 53°32' E 009°57'0 0.0
2019-May-29 14:30N 53°32' E 009°57'0 0.0
2019-May-29 14:00N 53°32' E 009°57'0 0.0
2019-May-29 13:30N 53°32' E 009°57'0 0.0
2019-May-29 13:00N 53°32' E 009°57'0 0.0
2019-May-29 12:30N 53°32' E 009°57'0 0.0
2019-May-29 12:00N 53°32' E 009°57'0 0.0
2019-May-29 11:30N 53°32' E 009°57'0 0.0
2019-May-29 11:00N 53°32' E 009°57'0 0.0
2019-May-29 10:30N 53°32' E 009°57'0 0.0
2019-May-29 10:00N 53°32' E 009°57'0 0.0
2019-May-29 09:27N 53°32' E 009°57'0 0.0
2019-May-29 09:00N 53°32' E 009°57'0 0.0
2019-May-29 08:30N 53°32' E 009°57'0 0.0
2019-May-29 08:00N 53°32' E 009°57'0 0.0
2019-May-29 07:30N 53°32' E 009°57'0 0.0
2019-May-29 07:00N 53°32' E 009°57'0 0.0
2019-May-29 06:30N 53°32' E 009°57'0 0.0
2019-May-29 06:00N 53°32' E 009°57'0 0.0
2019-May-29 05:30N 53°32' E 009°57'0 0.0
2019-May-29 05:00N 53°32' E 009°57'0 0.0
2019-May-29 04:30N 53°32' E 009°57'0 0.0
2019-May-29 04:00N 53°32' E 009°57'  
Track history (hours):
 
Tides and Currents Weather Stations Pressure Air Temp Water Temp Dewpoint Dewpoint Depression Visibility Wind Speed Wind Dir Waves Ship Positions

Bremen

Operator: Hapag-Lloyd Container Line

Last reported at 2019-Jun-08 03:38 UTC. Time now 2019-Jun-16 14:36 UTC.
Position N 58°01' W 005°50'.
Warning: this ship's position is 8 days out of date.

Length 111.5 m; beam 17 m; draft 4.8 m.

Type: Ship. MMSI: 308429000.

Date/timePositionNaut miles runAvg speedWind from/ knotsBaromVisibWave heightAir tempDewpointWater temp
2019-Jun-08 03:38N 58°01' W 005°50'1 5.4
2019-Jun-08 03:28N 58°02' W 005°51'34 1.3
2019-Jun-07 01:23N 58°32' W 005°21'25 8.7
2019-Jun-06 22:32N 58°45' W 004°41'0 9.2
2019-Jun-06 22:30N 58°46' W 004°40'4 8.7
2019-Jun-06 22:00N 58°48' W 004°33'4 8.5
2019-Jun-06 21:30N 58°50' W 004°26'4 8.1
2019-Jun-06 21:00N 58°52' W 004°19'4 8.1
2019-Jun-06 20:30N 58°54' W 004°13'4 7.9
2019-Jun-06 20:00N 58°56' W 004°06'4 8.1
2019-Jun-06 19:30N 58°58' W 003°59'4 8.3
2019-Jun-06 19:00N 58°60' W 003°52'4 8.4
2019-Jun-06 18:30N 59°02' W 003°45'4 8.6
2019-Jun-06 18:00N 59°04' W 003°38'4 8.0
2019-Jun-06 17:30N 59°06' W 003°31'4 8.0
2019-Jun-06 17:00N 59°08' W 003°25'2 3.9
2019-Jun-06 16:30N 59°09' W 003°21'0 0.6
2019-Jun-06 16:00N 59°09' W 003°21'6 9.8
2019-Jun-06 15:27N 59°13' W 003°16'1 0.1
2019-Jun-06 03:05N 59°13' W 003°18'1 6.9
2019-Jun-06 02:58N 59°12' W 003°19'2 5.4
2019-Jun-06 02:30N 59°10' W 003°22'2 4.7
2019-Jun-06 02:00N 59°09' W 003°25'3 5.1
2019-Jun-06 01:30N 59°07' W 003°28'3 5.8
2019-Jun-06 01:00N 59°04' W 003°31'3 6.3
2019-Jun-06 00:30N 59°02' W 003°35'3 6.5
2019-Jun-06 00:00N 58°59' W 003°39'3 5.3
2019-Jun-05 23:30N 58°57' W 003°38'3 6.6
2019-Jun-05 23:00N 58°57' W 003°32'4 7.2
2019-Jun-05 22:30N 58°57' W 003°25'4 8.0
2019-Jun-05 22:00N 58°57' W 003°17'1 1.1
2019-Jun-05 21:25N 58°58' W 003°18'0 0.0
2019-Jun-05 20:58N 58°58' W 003°18'0 0.0
2019-Jun-05 20:28N 58°58' W 003°18'0 0.0
2019-Jun-05 19:58N 58°58' W 003°18'0 0.0
2019-Jun-05 19:28N 58°58' W 003°18'0 0.0
2019-Jun-05 18:58N 58°58' W 003°18'0 0.0
2019-Jun-05 18:28N 58°58' W 003°18'0 0.0
2019-Jun-05 17:58N 58°58' W 003°18'0 0.0
2019-Jun-05 17:28N 58°58' W 003°18'0 0.0
2019-Jun-05 16:58N 58°58' W 003°18'0 0.0
2019-Jun-05 16:28N 58°58' W 003°18'0 0.0
2019-Jun-05 15:58N 58°58' W 003°18'0 0.0
2019-Jun-05 15:28N 58°58' W 003°18'0 0.0
2019-Jun-05 14:58N 58°58' W 003°18'0 0.0
2019-Jun-05 14:28N 58°58' W 003°18'0 0.0
2019-Jun-05 13:58N 58°58' W 003°18'0 0.0
2019-Jun-05 13:28N 58°58' W 003°18'0 0.0
2019-Jun-05 13:00N 58°58' W 003°18'0 0.0
2019-Jun-05 12:30N 58°58' W 003°18'0 0.0
2019-Jun-05 11:59N 58°58' W 003°18'0 0.0
2019-Jun-05 11:31N 58°58' W 003°18'0 0.0
2019-Jun-05 11:01N 58°58' W 003°18'0 0.4
2019-Jun-05 10:30N 58°58' W 003°18'2 3.9
2019-Jun-05 10:00N 58°57' W 003°21'4 8.1
2019-Jun-05 09:30N 58°54' W 003°27'3 5.0
2019-Jun-05 09:00N 58°51' W 003°28'3 6.8
2019-Jun-05 08:30N 58°48' W 003°25'3 5.3
2019-Jun-05 08:00N 58°46' W 003°23'3 5.2
2019-Jun-05 07:30N 58°44' W 003°20'5 9.3
2019-Jun-05 07:00N 58°44' W 003°11'612.2
2019-Jun-05 06:30N 58°41' W 003°01'714.2
2019-Jun-05 06:01N 58°36' W 002°52'612.2
2019-Jun-05 05:30N 58°30' W 002°46'5513.7
2019-Jun-05 01:27N 57°44' W 001°50'613.2
2019-Jun-05 01:00N 57°39' W 001°44'612.7
2019-Jun-05 00:30N 57°32' W 001°43'713.2
2019-Jun-05 00:00N 57°26' W 001°44'713.8
2019-Jun-04 23:30N 57°20' W 001°50'714.9
2019-Jun-04 23:01N 57°13' W 001°57'612.0
2019-Jun-04 22:30N 57°09' W 002°04'1 1.5
2019-Jun-04 22:00N 57°09' W 002°05'0 0.1
2019-Jun-04 21:30N 57°09' W 002°05'0 0.0
2019-Jun-04 20:59N 57°09' W 002°05'0 0.0
2019-Jun-04 20:28N 57°09' W 002°05'0 0.0
2019-Jun-04 19:58N 57°09' W 002°05'0 0.0
2019-Jun-04 19:28N 57°09' W 002°05'0 0.0
2019-Jun-04 18:58N 57°09' W 002°05'0 0.0
2019-Jun-04 18:28N 57°09' W 002°05'0 0.0
2019-Jun-04 17:58N 57°09' W 002°05'0 0.0
2019-Jun-04 17:28N 57°09' W 002°05'0 0.0
2019-Jun-04 16:58N 57°09' W 002°05'0 0.0
2019-Jun-04 16:28N 57°09' W 002°05'0 0.0
2019-Jun-04 15:58N 57°09' W 002°05'0 0.0
2019-Jun-04 15:28N 57°09' W 002°05'0 0.0
2019-Jun-04 14:55N 57°09' W 002°05'0 0.0
2019-Jun-04 14:28N 57°09' W 002°05'0 0.0
2019-Jun-04 13:58N 57°09' W 002°05'0 0.0
2019-Jun-04 13:28N 57°09' W 002°05'0 0.0
2019-Jun-04 12:58N 57°09' W 002°05'0 0.0
2019-Jun-04 12:28N 57°09' W 002°05'0 0.0
2019-Jun-04 11:58N 57°09' W 002°05'0 0.0
2019-Jun-04 11:28N 57°09' W 002°05'0 0.0
2019-Jun-04 10:58N 57°09' W 002°05'0 0.0
2019-Jun-04 10:28N 57°09' W 002°05'0 0.0
2019-Jun-04 09:58N 57°09' W 002°05'0 0.0
2019-Jun-04 09:28N 57°09' W 002°05'0 0.0
2019-Jun-04 08:59N 57°09' W 002°05'0 1.0
2019-Jun-04 08:30N 57°09' W 002°05'2 4.5
2019-Jun-04 08:01N 57°09' W 002°01'4 7.3
2019-Jun-04 07:30N 57°08' W 001°55'510.1
2019-Jun-04 07:00N 57°06' W 001°46'36414.4
2019-Jun-03 05:44N 54°10' E 007°40'413.9
2019-Jun-03 05:25N 54°08' E 007°46'1014.5
2019-Jun-03 04:43N 54°03' E 008°01'515.1
2019-Jun-03 04:25N 54°01' E 008°08'512.4
2019-Jun-03 04:00N 54°00' E 008°16'816.7
2019-Jun-03 03:29N 53°58' E 008°31'816.1
2019-Jun-03 03:00N 53°54' E 008°42'713.2
2019-Jun-03 02:30N 53°50' E 008°51'714.4
2019-Jun-03 02:01N 53°52' E 009°03'611.1
2019-Jun-03 01:30N 53°53' E 009°12'510.5
2019-Jun-03 01:00N 53°51' E 009°20'611.9
2019-Jun-03 00:30N 53°45' E 009°24'611.5
2019-Jun-03 00:01N 53°41' E 009°30'611.0
2019-Jun-02 23:31N 53°36' E 009°35'510.0
2019-Jun-02 23:00N 53°34' E 009°43'4 8.6
2019-Jun-02 22:30N 53°33' E 009°50'4 8.3
2019-Jun-02 22:01N 53°33' E 009°57'2 3.4
2019-Jun-02 21:30N 53°32' E 009°60'0 0.0
2019-Jun-02 21:00N 53°32' E 009°60'0 0.0
2019-Jun-02 20:29N 53°32' E 009°60'0 0.0
2019-Jun-02 19:59N 53°32' E 009°60'0 0.0
2019-Jun-02 19:29N 53°32' E 009°60'0 0.0
2019-Jun-02 18:59N 53°32' E 009°60'0 0.0
2019-Jun-02 18:29N 53°32' E 009°60'0 0.0
2019-Jun-02 17:59N 53°32' E 009°60'0 0.0
2019-Jun-02 17:29N 53°32' E 009°60'0 0.0
2019-Jun-02 16:59N 53°32' E 009°60'0 0.0
2019-Jun-02 16:29N 53°32' E 009°60'0 0.0
2019-Jun-02 15:59N 53°32' E 009°60'0 0.0
2019-Jun-02 15:29N 53°32' E 009°60'0 0.0
2019-Jun-02 14:59N 53°32' E 009°60'0 0.0
2019-Jun-02 14:29N 53°32' E 009°60'0 0.0
2019-Jun-02 13:59N 53°32' E 009°60'0 0.0
2019-Jun-02 13:29N 53°32' E 009°60'0 0.0
2019-Jun-02 12:59N 53°32' E 009°60'0 0.0
2019-Jun-02 12:29N 53°32' E 009°60'0 0.0
2019-Jun-02 11:56N 53°32' E 009°60'0 0.0
2019-Jun-02 11:29N 53°32' E 009°60'0 0.0
2019-Jun-02 10:59N 53°32' E 009°60'0 0.0
2019-Jun-02 10:29N 53°32' E 009°60'0 0.0
2019-Jun-02 09:59N 53°32' E 009°60'0 0.0
2019-Jun-02 09:29N 53°32' E 009°60'0 0.0
2019-Jun-02 08:59N 53°32' E 009°60'0 0.0
2019-Jun-02 08:29N 53°32' E 009°60'0 0.0
2019-Jun-02 07:59N 53°32' E 009°60'0 0.0
2019-Jun-02 07:28N 53°32' E 009°60'0 0.0
2019-Jun-02 06:58N 53°32' E 009°60'0 0.0
2019-Jun-02 06:28N 53°32' E 009°60'0 0.0
2019-Jun-02 06:00N 53°32' E 009°60'0 0.0
2019-Jun-02 05:30N 53°32' E 009°60'0 0.0
2019-Jun-02 05:01N 53°32' E 009°60'0 0.6
2019-Jun-02 04:30N 53°32' E 009°59'3 5.9
2019-Jun-02 04:00N 53°33' E 009°54'3 5.6
2019-Jun-02 03:30N 53°33' E 009°50'3 6.5
2019-Jun-02 03:00N 53°34' E 009°44'4 7.7
2019-Jun-02 02:30N 53°35' E 009°38'4 8.0
2019-Jun-02 02:01N 53°37' E 009°33'0 0.4
2019-Jun-02 01:29N 53°37' E 009°33'0 0.0
2019-Jun-02 00:59N 53°37' E 009°33'0 0.0
2019-Jun-02 00:29N 53°37' E 009°33'0 0.0
2019-Jun-01 23:59N 53°37' E 009°33'0 0.0
2019-Jun-01 23:29N 53°37' E 009°33'0 0.0
2019-Jun-01 22:59N 53°37' E 009°33'0 0.0
2019-Jun-01 22:29N 53°37' E 009°33'0 0.0
2019-Jun-01 21:58N 53°37' E 009°33'0 0.0
2019-Jun-01 21:28N 53°37' E 009°33'0 0.0
2019-Jun-01 21:00N 53°37' E 009°33'2 4.4
2019-Jun-01 20:30N 53°39' E 009°31'4 7.1
2019-Jun-01 20:00N 53°43' E 009°29'3 6.6
2019-Jun-01 19:30N 53°45' E 009°25'2 3.2
2019-Jun-01 18:58N 53°46' E 009°23'0 0.0
2019-Jun-01 18:28N 53°46' E 009°23'0 0.0
2019-Jun-01 17:58N 53°46' E 009°23'2 3.3
2019-Jun-01 17:30N 53°45' E 009°25'5 9.6
2019-Jun-01 17:00N 53°41' E 009°30'510.4
2019-Jun-01 16:30N 53°37' E 009°34'510.1
2019-Jun-01 16:00N 53°34' E 009°41'510.7
2019-Jun-01 15:30N 53°33' E 009°50'4 8.4
2019-Jun-01 15:00N 53°33' E 009°57'1 2.7
2019-Jun-01 14:30N 53°32' E 009°59'1 2.6
2019-Jun-01 14:00N 53°32' E 009°57'0 0.0
2019-Jun-01 13:30N 53°32' E 009°57'0 0.0
2019-Jun-01 13:00N 53°32' E 009°57'0 0.0
2019-Jun-01 12:29N 53°32' E 009°57'0 0.0
2019-Jun-01 11:59N 53°32' E 009°57'0 0.0
2019-Jun-01 11:29N 53°32' E 009°57'0 0.0
2019-Jun-01 10:59N 53°32' E 009°57'0 0.0
2019-Jun-01 10:29N 53°32' E 009°57'0 0.0
2019-Jun-01 09:59N 53°32' E 009°57'0 0.0
2019-Jun-01 09:29N 53°32' E 009°57'0 0.0
2019-Jun-01 08:59N 53°32' E 009°57'0 0.0
2019-Jun-01 08:29N 53°32' E 009°57'0 0.0
2019-Jun-01 07:59N 53°32' E 009°57'0 0.0
2019-Jun-01 07:29N 53°32' E 009°57'0 0.0
2019-Jun-01 06:59N 53°32' E 009°57'0 0.0
2019-Jun-01 06:29N 53°32' E 009°57'0 0.0
2019-Jun-01 05:59N 53°32' E 009°57'0 0.0
2019-Jun-01 05:29N 53°32' E 009°57'0 0.0
2019-Jun-01 04:59N 53°32' E 009°57'0 0.0
2019-Jun-01 04:29N 53°32' E 009°57'0 0.0
2019-Jun-01 03:59N 53°32' E 009°57'0 0.0
2019-Jun-01 03:30N 53°32' E 009°57'0 0.0
2019-Jun-01 02:58N 53°32' E 009°57'0 0.0
2019-Jun-01 02:29N 53°32' E 009°57'0 0.0
2019-Jun-01 02:00N 53°32' E 009°57'0 0.0
2019-Jun-01 01:30N 53°32' E 009°57'0 0.0
2019-Jun-01 01:00N 53°32' E 009°57'0 0.0
2019-Jun-01 00:30N 53°32' E 009°57'0 0.0
2019-Jun-01 00:00N 53°32' E 009°57'0 0.0
2019-May-31 23:30N 53°32' E 009°57'0 0.0
2019-May-31 23:00N 53°32' E 009°57'0 0.0
2019-May-31 22:30N 53°32' E 009°57'0 0.0
2019-May-31 22:00N 53°32' E 009°57'0 0.0
2019-May-31 21:30N 53°32' E 009°57'0 0.0
2019-May-31 21:00N 53°32' E 009°57'0 0.0
2019-May-31 20:30N 53°32' E 009°57'0 0.0
2019-May-31 20:00N 53°32' E 009°57'0 0.0
2019-May-31 19:30N 53°32' E 009°57'0 0.0
2019-May-31 19:00N 53°32' E 009°57'0 0.0
2019-May-31 18:27N 53°32' E 009°57'0 0.0
2019-May-31 18:00N 53°32' E 009°57'0 0.0
2019-May-31 17:30N 53°32' E 009°57'0 0.0
2019-May-31 17:00N 53°32' E 009°57'0 0.0
2019-May-31 16:30N 53°32' E 009°57'0 0.0
2019-May-31 16:00N 53°32' E 009°57'0 0.0
2019-May-31 15:30N 53°32' E 009°57'0 0.0
2019-May-31 15:00N 53°32' E 009°57'0 0.0
2019-May-31 14:30N 53°32' E 009°57'0 0.0
2019-May-31 14:00N 53°32' E 009°57'0 0.0
2019-May-31 13:30N 53°32' E 009°57'0 0.0
2019-May-31 13:00N 53°32' E 009°57'0 0.0
2019-May-31 12:30N 53°32' E 009°57'0 0.0
2019-May-31 12:00N 53°32' E 009°57'0 0.0
2019-May-31 11:30N 53°32' E 009°57'0 0.0
2019-May-31 11:00N 53°32' E 009°57'0 0.0
2019-May-31 10:30N 53°32' E 009°57'0 0.0
2019-May-31 10:00N 53°32' E 009°57'0 0.0
2019-May-31 09:30N 53°32' E 009°57'0 0.0
2019-May-31 09:00N 53°32' E 009°57'0 0.0
2019-May-31 08:30N 53°32' E 009°57'0 0.0
2019-May-31 08:00N 53°32' E 009°57'0 0.0
2019-May-31 07:30N 53°32' E 009°57'0 0.0
2019-May-31 07:00N 53°32' E 009°57'0 0.0
2019-May-31 06:30N 53°32' E 009°57'0 0.0
2019-May-31 06:00N 53°32' E 009°57'0 0.0
2019-May-31 05:30N 53°32' E 009°57'0 0.0
2019-May-31 05:00N 53°32' E 009°57'0 0.0
2019-May-31 04:30N 53°32' E 009°57'0 0.0
2019-May-31 04:00N 53°32' E 009°57'0 0.0
2019-May-31 03:30N 53°32' E 009°57'0 0.0
2019-May-31 03:00N 53°32' E 009°57'0 0.0
2019-May-31 02:30N 53°32' E 009°57'0 0.0
2019-May-31 02:00N 53°32' E 009°57'0 0.0
2019-May-31 01:30N 53°32' E 009°57'0 0.0
2019-May-31 01:00N 53°32' E 009°57'0 0.0
2019-May-31 00:30N 53°32' E 009°57'0 0.0
2019-May-31 00:00N 53°32' E 009°57'0 0.0
2019-May-30 23:30N 53°32' E 009°57'0 0.0
2019-May-30 23:00N 53°32' E 009°57'0 0.0
2019-May-30 22:30N 53°32' E 009°57'0 0.0
2019-May-30 22:00N 53°32' E 009°57'0 0.0
2019-May-30 21:30N 53°32' E 009°57'0 0.0
2019-May-30 21:00N 53°32' E 009°57'0 0.0
2019-May-30 20:30N 53°32' E 009°57'0 0.0
2019-May-30 20:00N 53°32' E 009°57'0 0.0
2019-May-30 19:30N 53°32' E 009°57'0 0.0
2019-May-30 19:00N 53°32' E 009°57'0 0.0
2019-May-30 18:30N 53°32' E 009°57'0 0.0
2019-May-30 18:00N 53°32' E 009°57'0 0.0
2019-May-30 17:30N 53°32' E 009°57'0 0.0
2019-May-30 17:00N 53°32' E 009°57'0 0.0
2019-May-30 16:30N 53°32' E 009°57'0 0.0
2019-May-30 16:00N 53°32' E 009°57'0 0.0
2019-May-30 15:30N 53°32' E 009°57'0 0.0
2019-May-30 15:00N 53°32' E 009°57'0 0.0
2019-May-30 14:30N 53°32' E 009°57'0 0.0
2019-May-30 14:00N 53°32' E 009°57'0 0.0
2019-May-30 13:30N 53°32' E 009°57'0 0.0
2019-May-30 13:00N 53°32' E 009°57'0 0.0
2019-May-30 12:30N 53°32' E 009°57'0 0.0
2019-May-30 12:00N 53°32' E 009°57'0 0.0
2019-May-30 11:30N 53°32' E 009°57'0 0.0
2019-May-30 11:00N 53°32' E 009°57'0 0.0
2019-May-30 10:30N 53°32' E 009°57'0 0.0
2019-May-30 10:00N 53°32' E 009°57'0 0.0
2019-May-30 09:30N 53°32' E 009°57'0 0.0
2019-May-30 09:00N 53°32' E 009°57'0 0.0
2019-May-30 08:30N 53°32' E 009°57'0 0.0
2019-May-30 08:00N 53°32' E 009°57'0 0.0
2019-May-30 07:30N 53°32' E 009°57'0 0.0
2019-May-30 07:00N 53°32' E 009°57'0 0.0
2019-May-30 06:30N 53°32' E 009°57'0 0.0
2019-May-30 06:00N 53°32' E 009°57'0 0.0
2019-May-30 05:30N 53°32' E 009°57'0 0.0
2019-May-30 05:00N 53°32' E 009°57'0 0.0
2019-May-30 04:30N 53°32' E 009°57'0 0.0
2019-May-30 04:00N 53°32' E 009°57'0 0.0
2019-May-30 03:27N 53°32' E 009°57'0 0.0
2019-May-30 03:00N 53°32' E 009°57'0 0.0
2019-May-30 02:30N 53°32' E 009°57'0 0.0
2019-May-30 02:00N 53°32' E 009°57'0 0.0
2019-May-30 01:30N 53°32' E 009°57'0 0.0
2019-May-30 01:00N 53°32' E 009°57'0 0.0
2019-May-30 00:30N 53°32' E 009°57'0 0.0
2019-May-30 00:00N 53°32' E 009°57'0 0.0
2019-May-29 23:30N 53°32' E 009°57'0 0.0
2019-May-29 23:00N 53°32' E 009°57'0 0.0
2019-May-29 22:30N 53°32' E 009°57'0 0.0
2019-May-29 22:00N 53°32' E 009°57'0 0.0
2019-May-29 21:30N 53°32' E 009°57'0 0.0
2019-May-29 21:00N 53°32' E 009°57'0 0.0
2019-May-29 20:30N 53°32' E 009°57'0 0.0
2019-May-29 19:57N 53°32' E 009°57'0 0.0
2019-May-29 19:30N 53°32' E 009°57'0 0.0
2019-May-29 19:00N 53°32' E 009°57'0 0.0
2019-May-29 18:30N 53°32' E 009°57'0 0.0
2019-May-29 18:00N 53°32' E 009°57'0 0.0
2019-May-29 17:30N 53°32' E 009°57'0 0.0
2019-May-29 17:00N 53°32' E 009°57'0 0.0
2019-May-29 16:30N 53°32' E 009°57'0 0.0
2019-May-29 16:00N 53°32' E 009°57'0 0.0
2019-May-29 15:30N 53°32' E 009°57'0 0.0
2019-May-29 15:00N 53°32' E 009°57'0 0.0
2019-May-29 14:30N 53°32' E 009°57'0 0.0
2019-May-29 14:00N 53°32' E 009°57'0 0.0
2019-May-29 13:30N 53°32' E 009°57'0 0.0
2019-May-29 13:00N 53°32' E 009°57'0 0.0
2019-May-29 12:30N 53°32' E 009°57'0 0.0
2019-May-29 12:00N 53°32' E 009°57'0 0.0
2019-May-29 11:30N 53°32' E 009°57'0 0.0
2019-May-29 11:00N 53°32' E 009°57'0 0.0
2019-May-29 10:30N 53°32' E 009°57'0 0.0
2019-May-29 10:00N 53°32' E 009°57'0 0.0
2019-May-29 09:27N 53°32' E 009°57'0 0.0
2019-May-29 09:00N 53°32' E 009°57'0 0.0
2019-May-29 08:30N 53°32' E 009°57'0 0.0
2019-May-29 08:00N 53°32' E 009°57'0 0.0
2019-May-29 07:30N 53°32' E 009°57'0 0.0
2019-May-29 07:00N 53°32' E 009°57'0 0.0
2019-May-29 06:30N 53°32' E 009°57'0 0.0
2019-May-29 06:00N 53°32' E 009°57'0 0.0
2019-May-29 05:30N 53°32' E 009°57'0 0.0
2019-May-29 05:00N 53°32' E 009°57'0 0.0
2019-May-29 04:30N 53°32' E 009°57'0 0.0
2019-May-29 04:00N 53°32' E 009°57'  

Dump ship's entire track history